sensor_id;sensor_type;location;lat;lon;timestamp;P1;durP1;ratioP1;P2;durP2;ratioP2
4980;SDS011;2507;50.392;7.482;2023-03-01T00:01:23;14.10;;;10.60;;
4980;SDS011;2507;50.392;7.482;2023-03-01T00:03:51;13.43;;;11.50;;
4980;SDS011;2507;50.392;7.482;2023-03-01T00:06:17;12.93;;;11.33;;
4980;SDS011;2507;50.392;7.482;2023-03-01T00:08:43;11.17;;;10.00;;
4980;SDS011;2507;50.392;7.482;2023-03-01T00:13:38;14.90;;;13.37;;
4980;SDS011;2507;50.392;7.482;2023-03-01T00:16:05;14.10;;;12.53;;
4980;SDS011;2507;50.392;7.482;2023-03-01T00:18:32;16.10;;;13.20;;
4980;SDS011;2507;50.392;7.482;2023-03-01T00:20:58;13.30;;;11.70;;
4980;SDS011;2507;50.392;7.482;2023-03-01T00:23:23;15.63;;;12.80;;
4980;SDS011;2507;50.392;7.482;2023-03-01T00:25:49;16.70;;;12.60;;
4980;SDS011;2507;50.392;7.482;2023-03-01T00:28:15;16.70;;;14.03;;
4980;SDS011;2507;50.392;7.482;2023-03-01T00:30:40;21.50;;;15.80;;
4980;SDS011;2507;50.392;7.482;2023-03-01T00:33:06;14.63;;;13.03;;
4980;SDS011;2507;50.392;7.482;2023-03-01T00:35:31;13.50;;;12.10;;
4980;SDS011;2507;50.392;7.482;2023-03-01T00:37:58;13.90;;;11.67;;
4980;SDS011;2507;50.392;7.482;2023-03-01T00:40:24;12.67;;;11.37;;
4980;SDS011;2507;50.392;7.482;2023-03-01T00:42:50;14.80;;;11.27;;
4980;SDS011;2507;50.392;7.482;2023-03-01T00:45:16;14.27;;;12.10;;
4980;SDS011;2507;50.392;7.482;2023-03-01T00:47:41;11.97;;;10.63;;
4980;SDS011;2507;50.392;7.482;2023-03-01T00:50:07;12.47;;;11.10;;
4980;SDS011;2507;50.392;7.482;2023-03-01T00:52:33;12.23;;;10.03;;
4980;SDS011;2507;50.392;7.482;2023-03-01T00:54:58;14.10;;;11.40;;
4980;SDS011;2507;50.392;7.482;2023-03-01T00:57:23;11.40;;;10.00;;
4980;SDS011;2507;50.392;7.482;2023-03-01T00:59:49;12.33;;;11.10;;
4980;SDS011;2507;50.392;7.482;2023-03-01T01:02:14;13.47;;;10.57;;
4980;SDS011;2507;50.392;7.482;2023-03-01T01:04:40;11.67;;;10.57;;
4980;SDS011;2507;50.392;7.482;2023-03-01T01:07:05;14.70;;;10.57;;
4980;SDS011;2507;50.392;7.482;2023-03-01T01:09:31;11.53;;;9.57;;
4980;SDS011;2507;50.392;7.482;2023-03-01T01:11:56;12.00;;;10.17;;
4980;SDS011;2507;50.392;7.482;2023-03-01T01:14:21;12.80;;;11.17;;
4980;SDS011;2507;50.392;7.482;2023-03-01T01:16:46;12.07;;;10.80;;
4980;SDS011;2507;50.392;7.482;2023-03-01T01:19:12;11.70;;;10.30;;
4980;SDS011;2507;50.392;7.482;2023-03-01T01:21:38;11.70;;;10.40;;
4980;SDS011;2507;50.392;7.482;2023-03-01T01:24:04;12.07;;;10.80;;
4980;SDS011;2507;50.392;7.482;2023-03-01T01:26:31;11.73;;;10.40;;
4980;SDS011;2507;50.392;7.482;2023-03-01T01:28:58;13.00;;;11.43;;
4980;SDS011;2507;50.392;7.482;2023-03-01T01:31:25;15.20;;;11.70;;
4980;SDS011;2507;50.392;7.482;2023-03-01T01:33:53;12.63;;;11.33;;
4980;SDS011;2507;50.392;7.482;2023-03-01T01:36:19;13.50;;;10.77;;
4980;SDS011;2507;50.392;7.482;2023-03-01T01:38:45;11.80;;;10.60;;
4980;SDS011;2507;50.392;7.482;2023-03-01T01:41:10;14.20;;;11.63;;
4980;SDS011;2507;50.392;7.482;2023-03-01T01:43:38;13.03;;;11.70;;
4980;SDS011;2507;50.392;7.482;2023-03-01T01:46:07;13.57;;;11.40;;
4980;SDS011;2507;50.392;7.482;2023-03-01T01:48:41;12.83;;;11.37;;
4980;SDS011;2507;50.392;7.482;2023-03-01T01:51:11;14.60;;;11.47;;
4980;SDS011;2507;50.392;7.482;2023-03-01T01:53:41;18.30;;;13.53;;
4980;SDS011;2507;50.392;7.482;2023-03-01T01:56:11;13.67;;;11.90;;
4980;SDS011;2507;50.392;7.482;2023-03-01T01:58:37;15.40;;;11.80;;
4980;SDS011;2507;50.392;7.482;2023-03-01T02:01:04;14.87;;;12.60;;
4980;SDS011;2507;50.392;7.482;2023-03-01T02:03:31;13.60;;;11.87;;
4980;SDS011;2507;50.392;7.482;2023-03-01T02:08:38;14.30;;;12.00;;
4980;SDS011;2507;50.392;7.482;2023-03-01T02:11:06;14.67;;;12.50;;
4980;SDS011;2507;50.392;7.482;2023-03-01T02:13:33;15.53;;;12.33;;
4980;SDS011;2507;50.392;7.482;2023-03-01T02:16:02;14.57;;;11.70;;
4980;SDS011;2507;50.392;7.482;2023-03-01T02:18:39;18.40;;;12.53;;
4980;SDS011;2507;50.392;7.482;2023-03-01T02:22:08;20.47;;;11.87;;
4980;SDS011;2507;50.392;7.482;2023-03-01T02:27:15;20.00;;;13.53;;
4980;SDS011;2507;50.392;7.482;2023-03-01T02:29:41;20.43;;;13.73;;
4980;SDS011;2507;50.392;7.482;2023-03-01T02:32:08;18.33;;;12.67;;
4980;SDS011;2507;50.392;7.482;2023-03-01T02:34:36;17.23;;;13.03;;
4980;SDS011;2507;50.392;7.482;2023-03-01T02:37:06;15.17;;;12.47;;
4980;SDS011;2507;50.392;7.482;2023-03-01T02:39:39;18.27;;;13.00;;
4980;SDS011;2507;50.392;7.482;2023-03-01T02:42:09;15.20;;;12.63;;
4980;SDS011;2507;50.392;7.482;2023-03-01T02:44:37;18.57;;;12.80;;
4980;SDS011;2507;50.392;7.482;2023-03-01T02:47:02;16.07;;;13.30;;
4980;SDS011;2507;50.392;7.482;2023-03-01T02:49:33;21.83;;;14.10;;
4980;SDS011;2507;50.392;7.482;2023-03-01T02:55:06;14.70;;;12.27;;
4980;SDS011;2507;50.392;7.482;2023-03-01T02:57:35;16.83;;;13.33;;
4980;SDS011;2507;50.392;7.482;2023-03-01T03:00:04;15.73;;;13.10;;
4980;SDS011;2507;50.392;7.482;2023-03-01T03:02:44;17.60;;;13.70;;
4980;SDS011;2507;50.392;7.482;2023-03-01T03:07:45;16.67;;;13.17;;
4980;SDS011;2507;50.392;7.482;2023-03-01T03:10:26;17.00;;;13.77;;
4980;SDS011;2507;50.392;7.482;2023-03-01T03:12:57;16.83;;;13.70;;
4980;SDS011;2507;50.392;7.482;2023-03-01T03:15:24;16.07;;;13.33;;
4980;SDS011;2507;50.392;7.482;2023-03-01T03:17:51;13.90;;;12.50;;
4980;SDS011;2507;50.392;7.482;2023-03-01T03:20:18;15.50;;;12.97;;
4980;SDS011;2507;50.392;7.482;2023-03-01T03:22:49;22.43;;;12.80;;
4980;SDS011;2507;50.392;7.482;2023-03-01T03:25:16;16.43;;;13.53;;
4980;SDS011;2507;50.392;7.482;2023-03-01T03:27:43;18.93;;;13.60;;
4980;SDS011;2507;50.392;7.482;2023-03-01T03:30:11;16.13;;;11.83;;
4980;SDS011;2507;50.392;7.482;2023-03-01T03:32:39;16.40;;;13.73;;
4980;SDS011;2507;50.392;7.482;2023-03-01T03:35:06;15.43;;;13.00;;
4980;SDS011;2507;50.392;7.482;2023-03-01T03:37:37;13.77;;;11.93;;
4980;SDS011;2507;50.392;7.482;2023-03-01T03:40:26;14.13;;;12.33;;
4980;SDS011;2507;50.392;7.482;2023-03-01T03:42:52;15.93;;;13.10;;
4980;SDS011;2507;50.392;7.482;2023-03-01T03:45:17;13.93;;;12.13;;
4980;SDS011;2507;50.392;7.482;2023-03-01T03:47:43;16.37;;;12.17;;
4980;SDS011;2507;50.392;7.482;2023-03-01T03:50:12;16.73;;;12.30;;
4980;SDS011;2507;50.392;7.482;2023-03-01T03:52:40;14.60;;;12.77;;
4980;SDS011;2507;50.392;7.482;2023-03-01T03:55:06;18.33;;;13.40;;
4980;SDS011;2507;50.392;7.482;2023-03-01T03:57:39;16.60;;;12.97;;
4980;SDS011;2507;50.392;7.482;2023-03-01T04:00:06;16.20;;;12.67;;
4980;SDS011;2507;50.392;7.482;2023-03-01T04:02:46;15.97;;;12.70;;
4980;SDS011;2507;50.392;7.482;2023-03-01T04:05:13;16.90;;;12.50;;
4980;SDS011;2507;50.392;7.482;2023-03-01T04:07:41;18.57;;;12.80;;
4980;SDS011;2507;50.392;7.482;2023-03-01T04:10:08;14.67;;;12.23;;
4980;SDS011;2507;50.392;7.482;2023-03-01T04:12:39;19.90;;;12.67;;
4980;SDS011;2507;50.392;7.482;2023-03-01T04:15:05;12.67;;;11.30;;
4980;SDS011;2507;50.392;7.482;2023-03-01T04:17:41;18.93;;;13.40;;
4980;SDS011;2507;50.392;7.482;2023-03-01T04:20:11;15.13;;;13.37;;
4980;SDS011;2507;50.392;7.482;2023-03-01T04:22:38;14.10;;;11.27;;
4980;SDS011;2507;50.392;7.482;2023-03-01T04:25:05;18.30;;;13.10;;
4980;SDS011;2507;50.392;7.482;2023-03-01T04:27:34;17.70;;;12.87;;
4980;SDS011;2507;50.392;7.482;2023-03-01T04:29:59;15.23;;;13.03;;
4980;SDS011;2507;50.392;7.482;2023-03-01T04:32:25;16.87;;;12.70;;
4980;SDS011;2507;50.392;7.482;2023-03-01T04:34:50;14.80;;;12.77;;
4980;SDS011;2507;50.392;7.482;2023-03-01T04:37:15;13.80;;;12.30;;
4980;SDS011;2507;50.392;7.482;2023-03-01T04:39:41;15.93;;;12.40;;
4980;SDS011;2507;50.392;7.482;2023-03-01T04:42:10;14.90;;;13.03;;
4980;SDS011;2507;50.392;7.482;2023-03-01T04:44:36;16.33;;;12.43;;
4980;SDS011;2507;50.392;7.482;2023-03-01T04:47:01;17.40;;;13.07;;
4980;SDS011;2507;50.392;7.482;2023-03-01T04:49:27;16.30;;;13.00;;
4980;SDS011;2507;50.392;7.482;2023-03-01T04:51:52;17.30;;;14.00;;
4980;SDS011;2507;50.392;7.482;2023-03-01T04:54:17;14.80;;;12.70;;
4980;SDS011;2507;50.392;7.482;2023-03-01T04:56:43;15.20;;;13.53;;
4980;SDS011;2507;50.392;7.482;2023-03-01T04:59:08;17.30;;;13.83;;
4980;SDS011;2507;50.392;7.482;2023-03-01T05:01:34;16.77;;;13.17;;
4980;SDS011;2507;50.392;7.482;2023-03-01T05:04:00;16.60;;;13.67;;
4980;SDS011;2507;50.392;7.482;2023-03-01T05:06:28;18.03;;;12.77;;
4980;SDS011;2507;50.392;7.482;2023-03-01T05:08:53;16.33;;;13.10;;
4980;SDS011;2507;50.392;7.482;2023-03-01T05:11:19;18.20;;;13.87;;
4980;SDS011;2507;50.392;7.482;2023-03-01T05:13:44;16.77;;;14.77;;
4980;SDS011;2507;50.392;7.482;2023-03-01T05:16:10;16.57;;;13.13;;
4980;SDS011;2507;50.392;7.482;2023-03-01T05:18:36;16.27;;;13.50;;
4980;SDS011;2507;50.392;7.482;2023-03-01T05:21:03;16.83;;;14.17;;
4980;SDS011;2507;50.392;7.482;2023-03-01T05:23:31;16.60;;;14.00;;
4980;SDS011;2507;50.392;7.482;2023-03-01T05:25:58;16.20;;;13.50;;
4980;SDS011;2507;50.392;7.482;2023-03-01T05:28:24;17.00;;;13.60;;
4980;SDS011;2507;50.392;7.482;2023-03-01T05:30:51;15.43;;;12.20;;
4980;SDS011;2507;50.392;7.482;2023-03-01T05:33:16;16.40;;;13.77;;
4980;SDS011;2507;50.392;7.482;2023-03-01T05:35:43;17.57;;;13.97;;
4980;SDS011;2507;50.392;7.482;2023-03-01T05:38:09;18.10;;;14.63;;
4980;SDS011;2507;50.392;7.482;2023-03-01T05:40:38;16.10;;;14.10;;
4980;SDS011;2507;50.392;7.482;2023-03-01T05:43:04;17.83;;;13.57;;
4980;SDS011;2507;50.392;7.482;2023-03-01T05:45:31;22.20;;;13.70;;
4980;SDS011;2507;50.392;7.482;2023-03-01T05:47:59;17.90;;;13.77;;
4980;SDS011;2507;50.392;7.482;2023-03-01T05:50:25;17.33;;;13.20;;
4980;SDS011;2507;50.392;7.482;2023-03-01T05:52:56;17.50;;;13.90;;
4980;SDS011;2507;50.392;7.482;2023-03-01T05:55:26;18.03;;;13.20;;
4980;SDS011;2507;50.392;7.482;2023-03-01T05:57:52;17.73;;;14.40;;
4980;SDS011;2507;50.392;7.482;2023-03-01T06:00:18;18.67;;;15.17;;
4980;SDS011;2507;50.392;7.482;2023-03-01T06:02:47;18.93;;;14.67;;
4980;SDS011;2507;50.392;7.482;2023-03-01T06:05:12;16.40;;;13.73;;
4980;SDS011;2507;50.392;7.482;2023-03-01T06:07:38;20.07;;;13.50;;
4980;SDS011;2507;50.392;7.482;2023-03-01T06:10:05;16.17;;;13.40;;
4980;SDS011;2507;50.392;7.482;2023-03-01T06:12:32;16.03;;;13.20;;
4980;SDS011;2507;50.392;7.482;2023-03-01T06:15:01;15.60;;;12.47;;
4980;SDS011;2507;50.392;7.482;2023-03-01T06:17:31;15.20;;;12.93;;
4980;SDS011;2507;50.392;7.482;2023-03-01T06:19:58;17.77;;;14.20;;
4980;SDS011;2507;50.392;7.482;2023-03-01T06:22:23;17.60;;;14.33;;
4980;SDS011;2507;50.392;7.482;2023-03-01T06:24:48;19.60;;;14.57;;
4980;SDS011;2507;50.392;7.482;2023-03-01T06:27:14;16.30;;;14.53;;
4980;SDS011;2507;50.392;7.482;2023-03-01T06:29:40;15.60;;;12.87;;
4980;SDS011;2507;50.392;7.482;2023-03-01T06:32:05;15.20;;;13.60;;
4980;SDS011;2507;50.392;7.482;2023-03-01T06:34:31;16.93;;;13.67;;
4980;SDS011;2507;50.392;7.482;2023-03-01T06:36:57;18.30;;;14.00;;
4980;SDS011;2507;50.392;7.482;2023-03-01T06:39:22;23.53;;;14.87;;
4980;SDS011;2507;50.392;7.482;2023-03-01T06:41:47;20.13;;;14.33;;
4980;SDS011;2507;50.392;7.482;2023-03-01T06:44:12;19.67;;;15.47;;
4980;SDS011;2507;50.392;7.482;2023-03-01T06:46:38;19.93;;;13.97;;
4980;SDS011;2507;50.392;7.482;2023-03-01T06:49:04;17.57;;;13.60;;
4980;SDS011;2507;50.392;7.482;2023-03-01T06:51:34;18.43;;;14.60;;
4980;SDS011;2507;50.392;7.482;2023-03-01T06:53:59;21.33;;;16.50;;
4980;SDS011;2507;50.392;7.482;2023-03-01T06:56:24;18.87;;;15.93;;
4980;SDS011;2507;50.392;7.482;2023-03-01T06:58:49;18.80;;;14.87;;
4980;SDS011;2507;50.392;7.482;2023-03-01T07:01:15;20.17;;;15.73;;
4980;SDS011;2507;50.392;7.482;2023-03-01T07:03:40;17.43;;;15.10;;
4980;SDS011;2507;50.392;7.482;2023-03-01T07:06:05;21.43;;;14.23;;
4980;SDS011;2507;50.392;7.482;2023-03-01T07:08:30;16.83;;;13.73;;
4980;SDS011;2507;50.392;7.482;2023-03-01T07:10:56;17.80;;;14.57;;
4980;SDS011;2507;50.392;7.482;2023-03-01T07:13:22;18.03;;;13.67;;
4980;SDS011;2507;50.392;7.482;2023-03-01T07:15:47;18.47;;;13.93;;
4980;SDS011;2507;50.392;7.482;2023-03-01T07:18:13;17.80;;;14.60;;
4980;SDS011;2507;50.392;7.482;2023-03-01T07:20:38;18.27;;;13.43;;
4980;SDS011;2507;50.392;7.482;2023-03-01T07:23:05;17.27;;;13.57;;
4980;SDS011;2507;50.392;7.482;2023-03-01T07:25:31;16.63;;;14.93;;
4980;SDS011;2507;50.392;7.482;2023-03-01T07:27:57;16.90;;;14.80;;
4980;SDS011;2507;50.392;7.482;2023-03-01T07:30:22;15.97;;;13.27;;
4980;SDS011;2507;50.392;7.482;2023-03-01T07:32:50;16.00;;;13.83;;
4980;SDS011;2507;50.392;7.482;2023-03-01T07:35:16;20.33;;;14.57;;
4980;SDS011;2507;50.392;7.482;2023-03-01T07:37:41;16.40;;;14.10;;
4980;SDS011;2507;50.392;7.482;2023-03-01T07:40:07;17.80;;;14.23;;
4980;SDS011;2507;50.392;7.482;2023-03-01T07:42:33;21.13;;;14.10;;
4980;SDS011;2507;50.392;7.482;2023-03-01T07:44:58;19.70;;;14.20;;
4980;SDS011;2507;50.392;7.482;2023-03-01T07:47:25;20.83;;;15.67;;
4980;SDS011;2507;50.392;7.482;2023-03-01T07:49:50;20.57;;;16.10;;
4980;SDS011;2507;50.392;7.482;2023-03-01T07:52:15;19.33;;;15.20;;
4980;SDS011;2507;50.392;7.482;2023-03-01T07:54:42;20.33;;;15.87;;
4980;SDS011;2507;50.392;7.482;2023-03-01T07:57:09;27.43;;;18.33;;
4980;SDS011;2507;50.392;7.482;2023-03-01T07:59:35;23.60;;;17.50;;
4980;SDS011;2507;50.392;7.482;2023-03-01T08:02:00;28.83;;;17.57;;
4980;SDS011;2507;50.392;7.482;2023-03-01T08:04:25;73.77;;;44.37;;
4980;SDS011;2507;50.392;7.482;2023-03-01T08:06:51;37.93;;;23.63;;
4980;SDS011;2507;50.392;7.482;2023-03-01T08:09:17;29.80;;;22.10;;
4980;SDS011;2507;50.392;7.482;2023-03-01T08:11:43;34.07;;;23.87;;
4980;SDS011;2507;50.392;7.482;2023-03-01T08:14:08;27.80;;;19.70;;
4980;SDS011;2507;50.392;7.482;2023-03-01T08:16:35;31.67;;;21.50;;
4980;SDS011;2507;50.392;7.482;2023-03-01T08:19:07;27.53;;;20.70;;
4980;SDS011;2507;50.392;7.482;2023-03-01T08:21:34;28.97;;;20.33;;
4980;SDS011;2507;50.392;7.482;2023-03-01T08:24:06;31.83;;;21.80;;
4980;SDS011;2507;50.392;7.482;2023-03-01T08:26:32;28.20;;;19.80;;
4980;SDS011;2507;50.392;7.482;2023-03-01T08:28:58;32.17;;;22.53;;
4980;SDS011;2507;50.392;7.482;2023-03-01T08:31:26;22.30;;;17.67;;
4980;SDS011;2507;50.392;7.482;2023-03-01T08:33:55;20.77;;;16.90;;
4980;SDS011;2507;50.392;7.482;2023-03-01T08:36:22;44.70;;;29.40;;
4980;SDS011;2507;50.392;7.482;2023-03-01T08:38:52;23.17;;;18.60;;
4980;SDS011;2507;50.392;7.482;2023-03-01T08:41:18;18.77;;;16.47;;
4980;SDS011;2507;50.392;7.482;2023-03-01T08:43:43;16.03;;;14.30;;
4980;SDS011;2507;50.392;7.482;2023-03-01T08:46:09;19.43;;;15.60;;
4980;SDS011;2507;50.392;7.482;2023-03-01T08:48:35;16.80;;;14.53;;
4980;SDS011;2507;50.392;7.482;2023-03-01T08:51:07;21.30;;;16.07;;
4980;SDS011;2507;50.392;7.482;2023-03-01T08:53:37;18.90;;;15.80;;
4980;SDS011;2507;50.392;7.482;2023-03-01T08:56:04;22.97;;;16.77;;
4980;SDS011;2507;50.392;7.482;2023-03-01T08:58:29;22.17;;;16.70;;
4980;SDS011;2507;50.392;7.482;2023-03-01T09:00:55;19.20;;;15.83;;
4980;SDS011;2507;50.392;7.482;2023-03-01T09:03:23;18.80;;;15.67;;
4980;SDS011;2507;50.392;7.482;2023-03-01T09:05:50;22.77;;;16.43;;
4980;SDS011;2507;50.392;7.482;2023-03-01T09:08:16;19.87;;;15.20;;
4980;SDS011;2507;50.392;7.482;2023-03-01T09:10:42;20.87;;;15.53;;
4980;SDS011;2507;50.392;7.482;2023-03-01T09:13:07;25.30;;;18.60;;
4980;SDS011;2507;50.392;7.482;2023-03-01T09:15:33;19.10;;;16.77;;
4980;SDS011;2507;50.392;7.482;2023-03-01T09:17:59;18.13;;;15.97;;
4980;SDS011;2507;50.392;7.482;2023-03-01T09:20:24;19.93;;;16.93;;
4980;SDS011;2507;50.392;7.482;2023-03-01T09:22:50;22.83;;;16.87;;
4980;SDS011;2507;50.392;7.482;2023-03-01T09:25:15;19.00;;;17.00;;
4980;SDS011;2507;50.392;7.482;2023-03-01T09:27:40;25.80;;;17.80;;
4980;SDS011;2507;50.392;7.482;2023-03-01T09:30:06;25.03;;;16.80;;
4980;SDS011;2507;50.392;7.482;2023-03-01T09:32:33;23.63;;;15.80;;
4980;SDS011;2507;50.392;7.482;2023-03-01T09:34:58;20.33;;;14.73;;
4980;SDS011;2507;50.392;7.482;2023-03-01T09:37:28;18.83;;;15.40;;
4980;SDS011;2507;50.392;7.482;2023-03-01T09:39:54;20.60;;;16.90;;
4980;SDS011;2507;50.392;7.482;2023-03-01T09:42:19;28.73;;;18.80;;
4980;SDS011;2507;50.392;7.482;2023-03-01T09:44:51;30.37;;;16.70;;
4980;SDS011;2507;50.392;7.482;2023-03-01T09:47:21;19.70;;;15.30;;
4980;SDS011;2507;50.392;7.482;2023-03-01T09:49:54;21.07;;;16.00;;
4980;SDS011;2507;50.392;7.482;2023-03-01T09:52:28;19.37;;;15.40;;
4980;SDS011;2507;50.392;7.482;2023-03-01T09:54:58;20.57;;;15.50;;
4980;SDS011;2507;50.392;7.482;2023-03-01T10:00:15;24.70;;;16.43;;
4980;SDS011;2507;50.392;7.482;2023-03-01T10:05:39;18.80;;;14.53;;
4980;SDS011;2507;50.392;7.482;2023-03-01T10:10:56;21.43;;;15.70;;
4980;SDS011;2507;50.392;7.482;2023-03-01T10:13:24;16.07;;;14.37;;
4980;SDS011;2507;50.392;7.482;2023-03-01T10:15:59;19.37;;;15.90;;
4980;SDS011;2507;50.392;7.482;2023-03-01T10:18:30;19.80;;;17.70;;
4980;SDS011;2507;50.392;7.482;2023-03-01T10:20:59;24.03;;;16.57;;
4980;SDS011;2507;50.392;7.482;2023-03-01T10:23:28;21.50;;;18.40;;
4980;SDS011;2507;50.392;7.482;2023-03-01T10:26:17;23.60;;;15.60;;
4980;SDS011;2507;50.392;7.482;2023-03-01T10:29:08;18.63;;;16.00;;
4980;SDS011;2507;50.392;7.482;2023-03-01T10:31:37;15.70;;;14.10;;
4980;SDS011;2507;50.392;7.482;2023-03-01T10:34:17;23.50;;;15.80;;
4980;SDS011;2507;50.392;7.482;2023-03-01T10:36:47;21.43;;;16.17;;
4980;SDS011;2507;50.392;7.482;2023-03-01T10:39:16;22.60;;;20.20;;
4980;SDS011;2507;50.392;7.482;2023-03-01T10:44:40;17.97;;;15.50;;
4980;SDS011;2507;50.392;7.482;2023-03-01T10:47:14;20.33;;;15.87;;
4980;SDS011;2507;50.392;7.482;2023-03-01T10:50:17;20.27;;;15.03;;
4980;SDS011;2507;50.392;7.482;2023-03-01T10:52:55;20.67;;;15.20;;
4980;SDS011;2507;50.392;7.482;2023-03-01T10:55:27;19.87;;;15.90;;
4980;SDS011;2507;50.392;7.482;2023-03-01T11:00:55;22.13;;;17.60;;
4980;SDS011;2507;50.392;7.482;2023-03-01T11:03:27;23.80;;;16.83;;
4980;SDS011;2507;50.392;7.482;2023-03-01T11:11:06;21.23;;;17.03;;
4980;SDS011;2507;50.392;7.482;2023-03-01T11:17:03;23.70;;;16.17;;
4980;SDS011;2507;50.392;7.482;2023-03-01T11:19:31;19.20;;;16.57;;
4980;SDS011;2507;50.392;7.482;2023-03-01T11:22:04;19.00;;;15.90;;
4980;SDS011;2507;50.392;7.482;2023-03-01T11:24:40;18.93;;;15.90;;
4980;SDS011;2507;50.392;7.482;2023-03-01T11:27:13;18.27;;;15.60;;
4980;SDS011;2507;50.392;7.482;2023-03-01T11:29:46;21.67;;;15.03;;
4980;SDS011;2507;50.392;7.482;2023-03-01T11:32:17;16.67;;;14.83;;
4980;SDS011;2507;50.392;7.482;2023-03-01T11:35:20;16.97;;;15.17;;
4980;SDS011;2507;50.392;7.482;2023-03-01T11:37:52;18.13;;;14.33;;
4980;SDS011;2507;50.392;7.482;2023-03-01T11:40:27;18.73;;;14.73;;
4980;SDS011;2507;50.392;7.482;2023-03-01T11:45:35;15.83;;;14.00;;
4980;SDS011;2507;50.392;7.482;2023-03-01T11:48:20;16.60;;;13.37;;
4980;SDS011;2507;50.392;7.482;2023-03-01T11:50:52;15.50;;;13.87;;
4980;SDS011;2507;50.392;7.482;2023-03-01T11:53:37;16.57;;;13.17;;
4980;SDS011;2507;50.392;7.482;2023-03-01T11:56:28;16.33;;;12.27;;
4980;SDS011;2507;50.392;7.482;2023-03-01T11:59:05;17.60;;;10.90;;
4980;SDS011;2507;50.392;7.482;2023-03-01T12:10:16;13.90;;;11.50;;
4980;SDS011;2507;50.392;7.482;2023-03-01T12:18:23;12.90;;;11.20;;
4980;SDS011;2507;50.392;7.482;2023-03-01T12:28:56;12.60;;;10.90;;
4980;SDS011;2507;50.392;7.482;2023-03-01T12:31:47;10.87;;;9.73;;
4980;SDS011;2507;50.392;7.482;2023-03-01T12:37:15;15.37;;;11.57;;
4980;SDS011;2507;50.392;7.482;2023-03-01T12:47:54;12.13;;;10.00;;
4980;SDS011;2507;50.392;7.482;2023-03-01T12:51:02;9.73;;;8.73;;
4980;SDS011;2507;50.392;7.482;2023-03-01T12:53:36;10.93;;;9.23;;
4980;SDS011;2507;50.392;7.482;2023-03-01T12:56:05;10.73;;;9.23;;
4980;SDS011;2507;50.392;7.482;2023-03-01T13:09:49;10.20;;;8.83;;
4980;SDS011;2507;50.392;7.482;2023-03-01T13:15:24;9.53;;;8.53;;
4980;SDS011;2507;50.392;7.482;2023-03-01T13:18:04;13.03;;;8.77;;
4980;SDS011;2507;50.392;7.482;2023-03-01T13:20:53;10.90;;;9.00;;
4980;SDS011;2507;50.392;7.482;2023-03-01T13:33:46;10.50;;;9.10;;
4980;SDS011;2507;50.392;7.482;2023-03-01T13:36:45;11.50;;;9.93;;
4980;SDS011;2507;50.392;7.482;2023-03-01T13:39:01;10.90;;;9.63;;
4980;SDS011;2507;50.392;7.482;2023-03-01T13:44:49;11.27;;;8.70;;
4980;SDS011;2507;50.392;7.482;2023-03-01T13:47:22;9.47;;;8.37;;
4980;SDS011;2507;50.392;7.482;2023-03-01T13:49:48;11.30;;;7.53;;
4980;SDS011;2507;50.392;7.482;2023-03-01T13:55:00;12.17;;;8.97;;
4980;SDS011;2507;50.392;7.482;2023-03-01T13:57:30;8.20;;;7.20;;
4980;SDS011;2507;50.392;7.482;2023-03-01T13:59:59;8.67;;;7.97;;
4980;SDS011;2507;50.392;7.482;2023-03-01T14:02:24;8.90;;;7.77;;
4980;SDS011;2507;50.392;7.482;2023-03-01T14:04:57;8.00;;;7.27;;
4980;SDS011;2507;50.392;7.482;2023-03-01T14:07:24;8.23;;;7.40;;
4980;SDS011;2507;50.392;7.482;2023-03-01T14:09:52;6.90;;;6.30;;
4980;SDS011;2507;50.392;7.482;2023-03-01T14:15:14;8.03;;;6.83;;
4980;SDS011;2507;50.392;7.482;2023-03-01T14:20:19;6.53;;;5.93;;
4980;SDS011;2507;50.392;7.482;2023-03-01T14:22:47;7.57;;;6.80;;
4980;SDS011;2507;50.392;7.482;2023-03-01T14:25:17;7.93;;;7.23;;
4980;SDS011;2507;50.392;7.482;2023-03-01T14:27:57;6.93;;;6.30;;
4980;SDS011;2507;50.392;7.482;2023-03-01T14:30:24;7.00;;;5.73;;
4980;SDS011;2507;50.392;7.482;2023-03-01T14:32:53;12.37;;;5.63;;
4980;SDS011;2507;50.392;7.482;2023-03-01T14:35:30;7.00;;;5.70;;
4980;SDS011;2507;50.392;7.482;2023-03-01T14:37:57;8.10;;;6.40;;
4980;SDS011;2507;50.392;7.482;2023-03-01T14:40:30;6.10;;;5.50;;
4980;SDS011;2507;50.392;7.482;2023-03-01T14:42:59;9.20;;;6.10;;
4980;SDS011;2507;50.392;7.482;2023-03-01T14:45:28;4.97;;;4.57;;
4980;SDS011;2507;50.392;7.482;2023-03-01T14:47:55;5.33;;;4.83;;
4980;SDS011;2507;50.392;7.482;2023-03-01T14:50:26;6.10;;;4.90;;
4980;SDS011;2507;50.392;7.482;2023-03-01T14:52:55;6.10;;;5.37;;
4980;SDS011;2507;50.392;7.482;2023-03-01T14:55:33;6.03;;;5.37;;
4980;SDS011;2507;50.392;7.482;2023-03-01T14:58:05;6.80;;;5.60;;
4980;SDS011;2507;50.392;7.482;2023-03-01T15:00:34;5.10;;;4.70;;
4980;SDS011;2507;50.392;7.482;2023-03-01T15:03:02;5.80;;;5.30;;
4980;SDS011;2507;50.392;7.482;2023-03-01T15:05:34;5.20;;;4.60;;
4980;SDS011;2507;50.392;7.482;2023-03-01T15:08:01;5.80;;;5.30;;
4980;SDS011;2507;50.392;7.482;2023-03-01T15:10:29;5.30;;;4.90;;
4980;SDS011;2507;50.392;7.482;2023-03-01T15:13:09;11.63;;;4.80;;
4980;SDS011;2507;50.392;7.482;2023-03-01T15:15:37;7.90;;;5.40;;
4980;SDS011;2507;50.392;7.482;2023-03-01T15:18:13;8.93;;;5.90;;
4980;SDS011;2507;50.392;7.482;2023-03-01T15:20:45;7.10;;;5.20;;
4980;SDS011;2507;50.392;7.482;2023-03-01T15:25:54;6.33;;;5.73;;
4980;SDS011;2507;50.392;7.482;2023-03-01T15:28:27;6.47;;;4.93;;
4980;SDS011;2507;50.392;7.482;2023-03-01T15:30:57;5.70;;;5.17;;
4980;SDS011;2507;50.392;7.482;2023-03-01T15:35:52;6.13;;;5.50;;
4980;SDS011;2507;50.392;7.482;2023-03-01T15:38:25;7.33;;;5.47;;
4980;SDS011;2507;50.392;7.482;2023-03-01T15:40:52;6.00;;;5.40;;
4980;SDS011;2507;50.392;7.482;2023-03-01T15:43:37;9.13;;;5.20;;
4980;SDS011;2507;50.392;7.482;2023-03-01T15:46:03;7.93;;;5.27;;
4980;SDS011;2507;50.392;7.482;2023-03-01T15:48:29;9.97;;;5.30;;
4980;SDS011;2507;50.392;7.482;2023-03-01T15:50:55;6.43;;;5.63;;
4980;SDS011;2507;50.392;7.482;2023-03-01T15:53:22;9.17;;;5.30;;
4980;SDS011;2507;50.392;7.482;2023-03-01T15:55:47;8.93;;;5.70;;
4980;SDS011;2507;50.392;7.482;2023-03-01T15:58:16;8.90;;;5.93;;
4980;SDS011;2507;50.392;7.482;2023-03-01T16:00:44;7.50;;;6.67;;
4980;SDS011;2507;50.392;7.482;2023-03-01T16:03:10;9.00;;;5.47;;
4980;SDS011;2507;50.392;7.482;2023-03-01T16:05:36;8.60;;;5.83;;
4980;SDS011;2507;50.392;7.482;2023-03-01T16:08:03;6.27;;;5.67;;
4980;SDS011;2507;50.392;7.482;2023-03-01T16:10:30;7.97;;;6.40;;
4980;SDS011;2507;50.392;7.482;2023-03-01T16:12:56;7.10;;;6.40;;
4980;SDS011;2507;50.392;7.482;2023-03-01T16:15:23;7.90;;;6.53;;
4980;SDS011;2507;50.392;7.482;2023-03-01T16:17:52;6.17;;;5.57;;
4980;SDS011;2507;50.392;7.482;2023-03-01T16:20:17;6.37;;;5.87;;
4980;SDS011;2507;50.392;7.482;2023-03-01T16:22:43;7.13;;;6.00;;
4980;SDS011;2507;50.392;7.482;2023-03-01T16:25:09;5.77;;;5.27;;
4980;SDS011;2507;50.392;7.482;2023-03-01T16:27:36;7.23;;;6.40;;
4980;SDS011;2507;50.392;7.482;2023-03-01T16:30:02;7.60;;;6.73;;
4980;SDS011;2507;50.392;7.482;2023-03-01T16:32:28;6.97;;;6.27;;
4980;SDS011;2507;50.392;7.482;2023-03-01T16:34:53;7.20;;;6.50;;
4980;SDS011;2507;50.392;7.482;2023-03-01T16:37:18;5.97;;;5.47;;
4980;SDS011;2507;50.392;7.482;2023-03-01T16:39:44;9.33;;;6.70;;
4980;SDS011;2507;50.392;7.482;2023-03-01T16:42:09;11.60;;;6.23;;
4980;SDS011;2507;50.392;7.482;2023-03-01T16:44:34;8.00;;;5.90;;
4980;SDS011;2507;50.392;7.482;2023-03-01T16:47:00;6.17;;;5.57;;
4980;SDS011;2507;50.392;7.482;2023-03-01T16:49:25;8.10;;;6.63;;
4980;SDS011;2507;50.392;7.482;2023-03-01T16:51:50;5.40;;;4.90;;
4980;SDS011;2507;50.392;7.482;2023-03-01T16:54:18;6.63;;;5.97;;
4980;SDS011;2507;50.392;7.482;2023-03-01T16:56:43;9.87;;;6.80;;